createdAt,value
2022-12-18T00:02:17.127Z,97694.66
2022-12-18T00:04:43.825Z,97691.66
2022-12-18T00:07:10.475Z,97702.63
2022-12-18T00:09:39.750Z,97703.78
2022-12-18T00:14:43.062Z,97708.47
2022-12-18T00:17:09.687Z,97707.97
2022-12-18T00:19:36.462Z,97710.31
2022-12-18T00:22:03.111Z,97699.31
2022-12-18T00:24:29.721Z,97711.28
2022-12-18T00:26:56.310Z,97709.81
2022-12-18T00:29:22.973Z,97708.28
2022-12-18T00:31:49.762Z,97709.13
2022-12-18T00:34:16.474Z,97714.81
2022-12-18T00:36:43.121Z,97711.13
2022-12-18T00:39:10.839Z,97711.97
2022-12-18T00:41:37.530Z,97711.78
2022-12-18T00:44:04.318Z,97717.31
2022-12-18T00:46:30.970Z,97711.13
2022-12-18T00:48:57.708Z,97716.13
2022-12-18T00:51:24.792Z,97711.47
2022-12-18T00:53:51.428Z,97712.81
2022-12-18T00:56:18.080Z,97725.97
2022-12-18T00:58:44.696Z,97725.63
2022-12-18T01:01:11.583Z,97730.94
2022-12-18T01:03:38.541Z,97734.13
2022-12-18T01:06:09.257Z,97736.94
2022-12-18T01:08:35.901Z,97743.91
2022-12-18T01:11:07.739Z,97743.28
2022-12-18T01:13:34.482Z,97752.50
2022-12-18T01:16:01.202Z,97760.00
2022-12-18T01:18:27.906Z,97758.09
2022-12-18T01:20:54.551Z,97753.97
2022-12-18T01:23:21.242Z,97753.81
2022-12-18T01:25:47.851Z,97751.66
2022-12-18T01:28:14.442Z,97757.97
2022-12-18T01:30:41.091Z,97770.47
2022-12-18T01:33:07.740Z,97782.78
2022-12-18T01:35:34.380Z,97789.13
2022-12-18T01:38:01.135Z,97789.47
2022-12-18T01:40:27.723Z,97797.56
2022-12-18T01:42:54.660Z,97799.22
2022-12-18T01:45:24.167Z,97796.50
2022-12-18T01:47:52.347Z,97792.13
2022-12-18T01:50:22.869Z,97806.28
2022-12-18T01:52:54.729Z,97794.66
2022-12-18T01:55:23.283Z,97802.66
2022-12-18T01:57:53.891Z,97805.22
2022-12-18T02:00:21.163Z,97810.56
2022-12-18T02:02:48.047Z,97805.34
2022-12-18T02:05:20.234Z,97802.69
2022-12-18T02:08:03.003Z,97809.72
2022-12-18T02:10:32.784Z,97815.72
2022-12-18T02:13:22.404Z,97822.34
2022-12-18T02:16:07.154Z,97820.81
2022-12-18T02:18:36.044Z,97827.63
2022-12-18T02:21:46.589Z,97827.03
2022-12-18T02:24:25.513Z,97833.03
2022-12-18T02:26:54.405Z,97833.19
2022-12-18T02:29:25.367Z,97829.69
2022-12-18T02:31:54.620Z,97828.03
2022-12-18T02:34:22.014Z,97835.53
2022-12-18T02:36:48.783Z,97824.03
2022-12-18T02:39:15.395Z,97832.75
2022-12-18T02:41:42.997Z,97823.66
2022-12-18T02:44:11.187Z,97822.72
2022-12-18T02:46:45.770Z,97825.69
2022-12-18T02:49:18.597Z,97827.88
2022-12-18T02:52:06.633Z,97830.75
2022-12-18T02:54:39.298Z,97833.53
2022-12-18T02:57:30.036Z,97829.13
2022-12-18T03:00:05.547Z,97834.50
2022-12-18T03:03:00.481Z,97826.13
2022-12-18T03:05:39.715Z,97829.00
2022-12-18T03:08:06.173Z,97833.63
2022-12-18T03:10:34.989Z,97842.53
2022-12-18T03:13:06.944Z,97847.38
2022-12-18T03:15:39.705Z,97852.06
2022-12-18T03:18:12.083Z,97842.06
2022-12-18T03:20:38.685Z,97846.44
2022-12-18T03:23:10.956Z,97844.13
2022-12-18T03:25:40.217Z,97846.25
2022-12-18T03:28:06.817Z,97840.63
2022-12-18T03:30:34.129Z,97830.38
2022-12-18T03:33:06.323Z,97839.28
2022-12-18T03:35:38.886Z,97843.34
2022-12-18T03:38:05.601Z,97839.53
2022-12-18T03:40:46.304Z,97837.38
2022-12-18T03:43:42.710Z,97836.34
2022-12-18T03:46:27.140Z,97839.44
2022-12-18T03:48:57.256Z,97843.81
2022-12-18T03:51:43.223Z,97837.97
2022-12-18T03:54:09.860Z,97844.25
2022-12-18T03:56:48.099Z,97844.25
2022-12-18T03:59:14.967Z,97844.63
2022-12-18T04:01:43.908Z,97844.06
2022-12-18T04:04:10.685Z,97846.13
2022-12-18T04:06:37.367Z,97846.03
2022-12-18T04:09:04.199Z,97846.56
2022-12-18T04:11:30.800Z,97842.25
2022-12-18T04:13:58.239Z,97845.72
2022-12-18T04:16:27.564Z,97839.44
2022-12-18T04:18:54.357Z,97847.06
2022-12-18T04:21:21.325Z,97841.59
2022-12-18T04:23:47.992Z,97847.53
2022-12-18T04:26:14.642Z,97846.19
2022-12-18T04:28:41.255Z,97844.84
2022-12-18T04:31:07.973Z,97845.16
2022-12-18T04:33:34.661Z,97848.47
2022-12-18T04:36:01.260Z,97854.03
2022-12-18T04:38:28.043Z,97856.97
2022-12-18T04:40:54.676Z,97855.34
2022-12-18T04:43:21.395Z,97864.25
2022-12-18T04:45:48.157Z,97868.47
2022-12-18T04:48:14.773Z,97867.84
2022-12-18T04:50:41.410Z,97865.75
2022-12-18T04:53:08.071Z,97864.66
2022-12-18T04:55:35.202Z,97872.72
2022-12-18T04:58:01.808Z,97874.63
2022-12-18T05:00:28.469Z,97874.53
2022-12-18T05:02:55.619Z,97874.22
2022-12-18T05:05:22.409Z,97874.88
2022-12-18T05:07:49.029Z,97876.41
2022-12-18T05:10:15.617Z,97884.41
2022-12-18T05:12:42.256Z,97881.31
2022-12-18T05:15:09.344Z,97880.19
2022-12-18T05:17:36.040Z,97880.16
2022-12-18T05:20:02.641Z,97885.91
2022-12-18T05:22:29.249Z,97891.13
2022-12-18T05:24:55.892Z,97889.28
2022-12-18T05:27:22.532Z,97891.78
2022-12-18T05:29:49.147Z,97888.69
2022-12-18T05:32:15.811Z,97898.81
2022-12-18T05:34:42.437Z,97893.16
2022-12-18T05:37:09.055Z,97898.75
2022-12-18T05:39:35.713Z,97897.97
2022-12-18T05:42:02.331Z,97888.81
2022-12-18T05:44:28.917Z,97891.63
2022-12-18T05:46:55.693Z,97900.72
2022-12-18T05:49:22.377Z,97900.91
2022-12-18T05:51:48.965Z,97906.97
2022-12-18T05:54:15.611Z,97902.59
2022-12-18T05:56:48.401Z,97912.88
2022-12-18T05:59:15.410Z,97913.34
2022-12-18T06:01:42.521Z,97910.91
2022-12-18T06:04:09.326Z,97916.91
2022-12-18T06:06:35.985Z,97914.38
2022-12-18T06:09:02.696Z,97914.47
2022-12-18T06:11:29.284Z,97913.13
2022-12-18T06:13:58.929Z,97908.69
2022-12-18T06:16:26.957Z,97909.13
2022-12-18T06:18:53.638Z,97913.75
2022-12-18T06:21:20.329Z,97909.69
2022-12-18T06:23:46.969Z,97913.63
2022-12-18T06:26:13.767Z,97927.97
2022-12-18T06:28:40.437Z,97924.41
2022-12-18T06:31:07.275Z,97931.03
2022-12-18T06:33:34.299Z,97932.63
2022-12-18T06:36:01.942Z,97937.56
2022-12-18T06:38:28.610Z,97942.53
2022-12-18T06:40:55.249Z,97943.94
2022-12-18T06:43:21.880Z,97953.22
2022-12-18T06:45:48.575Z,97953.34
2022-12-18T06:48:15.254Z,97956.19
2022-12-18T06:50:44.691Z,97954.94
2022-12-18T06:53:11.393Z,97958.66
2022-12-18T06:55:38.185Z,97970.63
2022-12-18T06:58:05.337Z,97968.44
2022-12-18T07:00:32.148Z,97976.63
2022-12-18T07:02:58.845Z,97977.88
2022-12-18T07:05:25.485Z,97981.66
2022-12-18T07:07:52.175Z,97985.19
2022-12-18T07:10:18.993Z,97985.81
2022-12-18T07:12:45.635Z,97983.16
2022-12-18T07:15:12.294Z,97996.72
2022-12-18T07:17:38.908Z,97993.03
2022-12-18T07:20:05.786Z,97995.53
2022-12-18T07:22:32.429Z,97991.13
2022-12-18T07:24:59.016Z,97999.47
2022-12-18T07:27:25.622Z,97996.69
2022-12-18T07:29:52.744Z,97993.66
2022-12-18T07:32:19.372Z,98005.69
2022-12-18T07:34:46.013Z,98005.38
2022-12-18T07:37:13.971Z,97999.41
2022-12-18T07:39:41.440Z,98006.16
2022-12-18T07:42:08.092Z,98015.16
2022-12-18T07:44:34.911Z,98003.53
2022-12-18T07:47:01.548Z,98011.53
2022-12-18T07:49:28.832Z,98007.78
2022-12-18T07:51:58.134Z,98012.38
2022-12-18T07:54:25.313Z,98022.31
2022-12-18T07:56:52.118Z,98022.94
2022-12-18T07:59:18.978Z,98020.97
2022-12-18T08:01:45.700Z,98020.25
2022-12-18T08:04:13.562Z,98023.22
2022-12-18T08:06:43.634Z,98027.69
2022-12-18T08:09:12.804Z,98029.66
2022-12-18T08:11:39.416Z,98033.31
2022-12-18T08:14:06.012Z,98026.78
2022-12-18T08:16:32.738Z,98023.38
2022-12-18T08:18:59.417Z,98029.72
2022-12-18T08:21:27.939Z,98024.53
2022-12-18T08:23:56.057Z,98025.91
2022-12-18T08:26:23.147Z,98024.22
2022-12-18T08:28:50.396Z,98025.75
2022-12-18T08:31:18.111Z,98024.63
2022-12-18T08:33:44.880Z,98027.28
2022-12-18T08:36:11.534Z,98017.13
2022-12-18T08:38:38.242Z,98009.50
2022-12-18T08:41:06.378Z,98012.84
2022-12-18T08:43:33.011Z,98013.50
2022-12-18T08:45:59.728Z,98014.13
2022-12-18T08:48:26.534Z,98018.53
2022-12-18T08:50:59.789Z,98022.19
2022-12-18T08:53:29.246Z,98015.81
2022-12-18T08:55:59.385Z,98020.53
2022-12-18T08:58:26.073Z,98017.03
2022-12-18T09:00:52.926Z,98018.91
2022-12-18T09:03:19.807Z,98011.13
2022-12-18T09:05:46.627Z,98022.00
2022-12-18T09:08:13.312Z,98026.19
2022-12-18T09:10:46.891Z,98026.88
2022-12-18T09:13:13.702Z,98030.28
2022-12-18T09:15:43.936Z,98019.03
2022-12-18T09:18:10.613Z,98016.44
2022-12-18T09:20:37.905Z,98023.22
2022-12-18T09:23:04.993Z,98032.66
2022-12-18T09:25:31.886Z,98034.97
2022-12-18T09:27:58.492Z,98033.19
2022-12-18T09:30:25.126Z,98035.72
2022-12-18T09:32:51.823Z,98029.66
2022-12-18T09:35:18.567Z,98033.50
2022-12-18T09:37:45.296Z,98030.53
2022-12-18T09:40:26.485Z,98033.38
2022-12-18T09:42:58.417Z,98031.63
2022-12-18T09:45:25.039Z,98033.47
2022-12-18T09:47:51.695Z,98035.25
2022-12-18T09:50:24.364Z,98033.81
2022-12-18T09:52:54.337Z,98030.81
2022-12-18T09:55:37.600Z,98030.09
2022-12-18T09:58:32.102Z,98027.91
2022-12-18T10:00:58.771Z,98026.47
2022-12-18T10:03:25.555Z,98028.91
2022-12-18T10:06:04.312Z,98028.31
2022-12-18T10:08:37.160Z,98025.25
2022-12-18T10:11:29.398Z,98027.97
2022-12-18T10:13:59.865Z,98027.03
2022-12-18T10:16:32.499Z,98027.22
2022-12-18T10:19:27.357Z,98035.09
2022-12-18T10:22:08.981Z,98029.28
2022-12-18T10:25:00.756Z,98028.78
2022-12-18T10:27:27.508Z,98024.63
2022-12-18T10:29:54.296Z,98024.66
2022-12-18T10:32:25.696Z,98023.53
2022-12-18T10:34:59.871Z,98029.72
2022-12-18T10:37:28.927Z,98014.41
2022-12-18T10:40:20.159Z,98015.75
2022-12-18T10:43:02.635Z,98019.91
2022-12-18T10:45:29.372Z,98029.75
2022-12-18T10:47:56.008Z,98023.56
2022-12-18T10:51:01.403Z,98023.53
2022-12-18T10:53:23.560Z,98024.22
2022-12-18T10:55:50.197Z,98020.44
2022-12-18T10:58:24.967Z,98026.84
2022-12-18T11:01:11.650Z,98017.03
2022-12-18T11:03:42.419Z,98017.59
2022-12-18T11:06:13.798Z,98014.59
2022-12-18T11:08:41.604Z,98013.28
2022-12-18T11:11:28.561Z,98009.53
2022-12-18T11:14:13.378Z,98014.41
2022-12-18T11:17:03.088Z,98009.94
2022-12-18T11:19:36.393Z,98009.50
2022-12-18T11:22:22.173Z,98003.69
2022-12-18T11:25:30.003Z,98015.53
2022-12-18T11:27:56.725Z,98006.72
2022-12-18T11:30:38.262Z,98016.22
2022-12-18T11:33:16.583Z,98021.72
2022-12-18T11:35:56.923Z,98016.38
2022-12-18T11:38:27.581Z,98018.22
2022-12-18T11:41:10.503Z,98010.13
2022-12-18T11:43:40.123Z,98002.94
2022-12-18T11:46:17.725Z,98000.16
2022-12-18T11:48:47.158Z,97995.81
2022-12-18T11:51:19.763Z,97997.59
2022-12-18T11:53:46.508Z,97993.97
2022-12-18T11:56:28.589Z,97983.94
2022-12-18T11:59:34.081Z,97973.22
2022-12-18T12:02:19.310Z,97962.88
2022-12-18T12:05:04.624Z,97961.38
2022-12-18T12:07:49.919Z,97965.53
2022-12-18T12:10:22.325Z,97955.84
2022-12-18T12:13:13.490Z,97951.22
2022-12-18T12:15:50.202Z,97954.38
2022-12-18T12:18:38.185Z,97956.38
2022-12-18T12:21:14.171Z,97950.22
2022-12-18T12:23:46.762Z,97943.03
2022-12-18T12:26:21.952Z,97936.38
2022-12-18T12:28:48.472Z,97930.22
2022-12-18T12:31:27.298Z,97932.22
2022-12-18T12:34:24.137Z,97927.16
2022-12-18T12:37:17.428Z,97923.88
2022-12-18T12:39:44.761Z,97930.41
2022-12-18T12:42:30.353Z,97917.22
2022-12-18T12:44:57.496Z,97919.53
2022-12-18T12:47:29.190Z,97916.53
2022-12-18T12:49:56.471Z,97919.53
2022-12-18T12:52:35.977Z,97916.50
2022-12-18T12:55:03.490Z,97913.84
2022-12-18T12:57:35.698Z,97918.81
2022-12-18T13:00:15.763Z,97917.47
2022-12-18T13:02:53.621Z,97919.66
2022-12-18T13:05:26.195Z,97919.47
2022-12-18T13:08:12.430Z,97910.81
2022-12-18T13:10:42.510Z,97916.00
2022-12-18T13:13:12.936Z,97906.50
2022-12-18T13:15:43.363Z,97901.19
2022-12-18T13:18:10.165Z,97891.50
2022-12-18T13:20:37.929Z,97900.69
2022-12-18T13:23:26.542Z,97907.84
2022-12-18T13:26:08.117Z,97900.22
2022-12-18T13:28:34.944Z,97899.22
2022-12-18T13:31:02.174Z,97898.53
2022-12-18T13:34:16.460Z,97886.19
2022-12-18T13:36:34.536Z,97890.00
2022-12-18T13:39:35.141Z,97891.19
2022-12-18T13:42:08.308Z,97885.50
2022-12-18T13:44:40.279Z,97885.19
2022-12-18T13:47:35.046Z,97885.19
2022-12-18T13:50:03.205Z,97896.19
2022-12-18T13:52:35.981Z,97892.53
2022-12-18T13:55:03.498Z,97887.56
2022-12-18T13:57:38.271Z,97889.88
2022-12-18T14:00:23.725Z,97886.19
2022-12-18T14:02:50.817Z,97887.38
2022-12-18T14:05:27.237Z,97891.34
2022-12-18T14:07:54.813Z,97886.00
2022-12-18T14:13:10.174Z,97891.50
2022-12-18T14:15:41.218Z,97887.16
2022-12-18T14:18:30.335Z,97892.56
2022-12-18T14:20:58.877Z,97891.53
2022-12-18T14:23:35.529Z,97894.19
2022-12-18T14:26:05.955Z,97892.84
2022-12-18T14:28:33.032Z,97896.66
2022-12-18T14:30:59.790Z,97893.28
2022-12-18T14:33:27.526Z,97894.84
2022-12-18T14:35:56.816Z,97899.16
2022-12-18T14:38:35.945Z,97899.81
2022-12-18T14:41:05.997Z,97911.84
2022-12-18T14:43:35.128Z,97902.34
2022-12-18T14:46:01.946Z,97900.66
2022-12-18T14:48:37.021Z,97908.00
2022-12-18T14:51:13.846Z,97911.25
2022-12-18T14:53:42.680Z,97912.47
2022-12-18T14:56:25.419Z,97913.06
2022-12-18T14:58:55.419Z,97897.78
2022-12-18T15:01:27.344Z,97898.78
2022-12-18T15:03:54.508Z,97905.16
2022-12-18T15:06:37.770Z,97903.78
2022-12-18T15:09:25.283Z,97903.50
2022-12-18T15:11:56.885Z,97903.00
2022-12-18T15:14:35.483Z,97900.16
2022-12-18T15:17:03.216Z,97907.97
2022-12-18T15:19:40.424Z,97906.28
2022-12-18T15:22:28.023Z,97914.72
2022-12-18T15:24:55.415Z,97921.13
2022-12-18T15:27:25.131Z,97922.19
2022-12-18T15:30:10.113Z,97927.69
2022-12-18T15:32:37.621Z,97918.59
2022-12-18T15:35:25.293Z,97929.56
2022-12-18T15:37:52.499Z,97929.09
2022-12-18T15:40:20.977Z,97921.91
2022-12-18T15:42:47.857Z,97925.25
2022-12-18T15:45:15.229Z,97920.38
2022-12-18T15:47:41.952Z,97916.19
2022-12-18T15:50:09.833Z,97917.34
2022-12-18T15:52:47.071Z,97922.03
2022-12-18T15:55:21.324Z,97925.34
2022-12-18T15:57:47.940Z,97922.31
2022-12-18T16:00:14.877Z,97926.31
2022-12-18T16:02:42.949Z,97922.69
2022-12-18T16:05:14.713Z,97921.16
2022-12-18T16:07:41.395Z,97916.16
2022-12-18T16:10:08.333Z,97920.69
2022-12-18T16:12:35.033Z,97921.84
2022-12-18T16:15:03.291Z,97923.34
2022-12-18T16:17:29.989Z,97923.00
2022-12-18T16:19:56.906Z,97917.66
2022-12-18T16:22:25.252Z,97917.03
2022-12-18T16:24:52.324Z,97923.03
2022-12-18T16:27:18.982Z,97917.22
2022-12-18T16:29:45.808Z,97908.38
2022-12-18T16:32:14.115Z,97908.06
2022-12-18T16:34:40.792Z,97915.75
2022-12-18T16:37:10.293Z,97924.09
2022-12-18T16:39:37.441Z,97921.91
2022-12-18T16:42:12.075Z,97921.44
2022-12-18T16:44:38.665Z,97925.78
2022-12-18T16:47:05.325Z,97937.75
2022-12-18T16:49:33.268Z,97917.25
2022-12-18T16:51:59.904Z,97922.94
2022-12-18T16:54:26.570Z,97930.25
2022-12-18T16:56:53.227Z,97933.06
2022-12-18T16:59:20.003Z,97939.41
2022-12-18T17:01:46.855Z,97936.97
2022-12-18T17:04:13.547Z,97936.13
2022-12-18T17:06:42.054Z,97925.97
2022-12-18T17:09:11.446Z,97925.59
2022-12-18T17:11:38.091Z,97926.63
2022-12-18T17:14:13.341Z,97921.81
2022-12-18T17:16:40.224Z,97918.16
2022-12-18T17:19:12.128Z,97912.47
2022-12-18T17:21:41.982Z,97901.47
2022-12-18T17:24:08.670Z,97906.47
2022-12-18T17:26:35.311Z,97903.50
2022-12-18T17:29:01.972Z,97902.97
2022-12-18T17:31:29.333Z,97899.50
2022-12-18T17:33:56.165Z,97900.66
2022-12-18T17:36:22.869Z,97918.16
2022-12-18T17:38:53.221Z,97926.66
2022-12-18T17:41:20.020Z,97929.34
2022-12-18T17:43:59.573Z,97948.50
2022-12-18T17:46:26.871Z,97947.50
2022-12-18T17:48:55.900Z,97938.84
2022-12-18T17:51:22.612Z,97941.31
2022-12-18T17:53:49.214Z,97943.47
2022-12-18T17:56:16.875Z,97945.63
2022-12-18T17:58:43.642Z,97942.94
2022-12-18T18:01:14.786Z,97931.13
2022-12-18T18:03:43.176Z,97915.28
2022-12-18T18:06:10.320Z,97914.06
2022-12-18T18:08:37.044Z,97915.94
2022-12-18T18:11:07.672Z,97914.41
2022-12-18T18:13:38.660Z,97924.91
2022-12-18T18:16:08.337Z,97929.91
2022-12-18T18:18:35.015Z,97933.34
2022-12-18T18:21:08.441Z,97923.22
2022-12-18T18:23:35.895Z,97930.06
2022-12-18T18:26:06.557Z,97933.19
2022-12-18T18:28:33.856Z,97932.31
2022-12-18T18:31:06.891Z,97921.22
2022-12-18T18:33:33.840Z,97927.69
2022-12-18T18:36:00.465Z,97933.69
2022-12-18T18:38:27.511Z,97936.81
2022-12-18T18:41:03.597Z,97937.94
2022-12-18T18:43:30.247Z,97931.03
2022-12-18T18:45:57.541Z,97934.72
2022-12-18T18:48:26.086Z,97927.88
2022-12-18T18:50:59.531Z,97920.06
2022-12-18T18:53:26.162Z,97929.03
2022-12-18T18:56:26.170Z,97925.03
2022-12-18T18:58:39.387Z,97925.69
2022-12-18T19:01:07.915Z,97928.72
2022-12-18T19:03:35.642Z,97941.09
2022-12-18T19:06:02.283Z,97950.75
2022-12-18T19:08:30.814Z,97962.75
2022-12-18T19:10:58.569Z,97956.72
2022-12-18T19:13:26.376Z,97948.56
2022-12-18T19:16:05.121Z,97950.91
2022-12-18T19:18:31.760Z,97948.91
2022-12-18T19:21:02.096Z,97935.44
2022-12-18T19:23:29.199Z,97920.31
2022-12-18T19:26:17.050Z,97926.47
2022-12-18T19:28:48.618Z,97924.50
2022-12-18T19:31:18.823Z,97929.81
2022-12-18T19:33:49.533Z,97927.16
2022-12-18T19:36:24.124Z,97920.97
2022-12-18T19:38:51.972Z,97924.00
2022-12-18T19:41:18.836Z,97923.47
2022-12-18T19:43:46.934Z,97927.22
2022-12-18T19:46:19.175Z,97927.78
2022-12-18T19:48:46.694Z,97927.97
2022-12-18T19:51:24.571Z,97928.84
2022-12-18T19:53:56.401Z,97926.03
2022-12-18T19:56:26.226Z,97937.53
2022-12-18T19:58:54.728Z,97939.88
2022-12-18T20:01:22.501Z,97938.19
2022-12-18T20:03:52.591Z,97935.06
2022-12-18T20:06:26.107Z,97938.22
2022-12-18T20:08:52.834Z,97942.53
2022-12-18T20:11:21.370Z,97934.19
2022-12-18T20:13:48.062Z,97939.38
2022-12-18T20:16:14.754Z,97930.84
2022-12-18T20:18:41.534Z,97918.88
2022-12-18T20:21:13.709Z,97934.88
2022-12-18T20:23:41.016Z,97915.53
2022-12-18T20:26:08.668Z,97911.19
2022-12-18T20:28:35.468Z,97916.72
2022-12-18T20:31:02.733Z,97913.72
2022-12-18T20:33:29.580Z,97908.22
2022-12-18T20:36:03.258Z,97904.53
2022-12-18T20:38:30.660Z,97898.19
2022-12-18T20:40:58.671Z,97887.69
2022-12-18T20:43:25.294Z,97899.88
2022-12-18T20:45:51.987Z,97905.38
2022-12-18T20:48:23.572Z,97905.88
2022-12-18T20:51:09.496Z,97901.22
2022-12-18T20:53:36.224Z,97906.88
2022-12-18T20:56:15.037Z,97904.88
2022-12-18T20:58:45.546Z,97899.03
2022-12-18T21:01:14.009Z,97890.06
2022-12-18T21:03:41.499Z,97889.53
2022-12-18T21:06:08.208Z,97885.53
2022-12-18T21:08:34.903Z,97888.72
2022-12-18T21:11:13.474Z,97898.22
2022-12-18T21:13:40.332Z,97907.03
2022-12-18T21:16:07.146Z,97890.19
2022-12-18T21:18:35.237Z,97890.88
2022-12-18T21:21:02.200Z,97882.22
2022-12-18T21:23:29.132Z,97878.53
2022-12-18T21:25:57.556Z,97881.53
2022-12-18T21:28:24.215Z,97885.69
2022-12-18T21:30:51.166Z,97892.03
2022-12-18T21:33:17.861Z,97882.50
2022-12-18T21:35:44.506Z,97887.53
2022-12-18T21:38:11.186Z,97895.16
2022-12-18T21:40:39.185Z,97889.69
2022-12-18T21:43:05.833Z,97887.34
2022-12-18T21:45:32.430Z,97887.50
2022-12-18T21:47:59.026Z,97887.81
2022-12-18T21:50:25.743Z,97885.50
2022-12-18T21:52:52.384Z,97883.50
2022-12-18T21:55:19.051Z,97889.00
2022-12-18T21:57:45.690Z,97878.16
2022-12-18T22:00:18.537Z,97876.81
2022-12-18T22:02:47.027Z,97887.31
2022-12-18T22:05:13.872Z,97880.50
2022-12-18T22:07:40.541Z,97875.00
2022-12-18T22:10:07.700Z,97881.50
2022-12-18T22:12:34.352Z,97885.16
2022-12-18T22:15:01.460Z,97889.81
2022-12-18T22:17:28.179Z,97882.81
2022-12-18T22:19:54.891Z,97876.81
2022-12-18T22:22:21.577Z,97893.47
2022-12-18T22:24:48.232Z,97889.31
2022-12-18T22:27:14.894Z,97888.97
2022-12-18T22:29:41.503Z,97884.31
2022-12-18T22:32:09.718Z,97891.19
2022-12-18T22:34:38.648Z,97883.97
2022-12-18T22:37:05.385Z,97892.81
2022-12-18T22:39:32.080Z,97897.00
2022-12-18T22:41:58.837Z,97893.16
2022-12-18T22:44:26.517Z,97901.81
2022-12-18T22:47:05.628Z,97904.81
2022-12-18T22:49:34.820Z,97900.97
2022-12-18T22:52:02.266Z,97905.63
2022-12-18T22:54:28.904Z,97913.81
2022-12-18T22:56:55.515Z,97918.63
2022-12-18T22:59:22.703Z,97916.75
2022-12-18T23:01:49.898Z,97916.97
2022-12-18T23:04:17.459Z,97904.63
2022-12-18T23:06:44.261Z,97900.91
2022-12-18T23:09:19.281Z,97899.94
2022-12-18T23:11:46.084Z,97907.44
2022-12-18T23:14:12.952Z,97902.47
2022-12-18T23:16:39.566Z,97898.63
2022-12-18T23:19:06.307Z,97895.81
2022-12-18T23:21:32.916Z,97884.91
2022-12-18T23:24:00.684Z,97887.06
2022-12-18T23:26:27.503Z,97896.56
2022-12-18T23:28:54.184Z,97906.09
2022-12-18T23:31:28.599Z,97898.91
2022-12-18T23:33:56.236Z,97889.59
2022-12-18T23:36:23.038Z,97887.06
2022-12-18T23:38:54.167Z,97889.56
2022-12-18T23:41:21.672Z,97900.91
2022-12-18T23:43:48.459Z,97907.28
2022-12-18T23:46:19.107Z,97904.28
2022-12-18T23:48:45.892Z,97891.59
2022-12-18T23:51:13.202Z,97891.41
2022-12-18T23:53:39.957Z,97887.56
2022-12-18T23:56:07.103Z,97887.56
2022-12-18T23:58:33.872Z,97879.75
